sensor_id;sensor_type;location;lat;lon;timestamp;P1;durP1;ratioP1;P2;durP2;ratioP2
67514;SDS011;60646;55.802;37.032;2023-07-02T00:02:10;3.65;;;2.58;;
67514;SDS011;60646;55.802;37.032;2023-07-02T00:04:36;4.05;;;2.60;;
67514;SDS011;60646;55.802;37.032;2023-07-02T00:07:02;4.85;;;2.40;;
67514;SDS011;60646;55.802;37.032;2023-07-02T00:09:30;3.92;;;2.70;;
67514;SDS011;60646;55.802;37.032;2023-07-02T00:11:55;3.72;;;2.50;;
67514;SDS011;60646;55.802;37.032;2023-07-02T00:14:24;3.40;;;2.58;;
67514;SDS011;60646;55.802;37.032;2023-07-02T00:16:49;4.10;;;2.58;;
67514;SDS011;60646;55.802;37.032;2023-07-02T00:19:16;4.13;;;2.80;;
67514;SDS011;60646;55.802;37.032;2023-07-02T00:21:42;3.92;;;2.53;;
67514;SDS011;60646;55.802;37.032;2023-07-02T00:24:10;3.53;;;2.50;;
67514;SDS011;60646;55.802;37.032;2023-07-02T00:26:36;3.67;;;2.55;;
67514;SDS011;60646;55.802;37.032;2023-07-02T00:29:11;3.47;;;2.63;;
67514;SDS011;60646;55.802;37.032;2023-07-02T00:31:37;2.67;;;2.15;;
67514;SDS011;60646;55.802;37.032;2023-07-02T00:34:03;3.05;;;2.42;;
67514;SDS011;60646;55.802;37.032;2023-07-02T00:36:30;4.05;;;2.50;;
67514;SDS011;60646;55.802;37.032;2023-07-02T00:38:56;4.75;;;2.42;;
67514;SDS011;60646;55.802;37.032;2023-07-02T00:41:22;15.00;;;3.15;;
67514;SDS011;60646;55.802;37.032;2023-07-02T00:43:49;4.75;;;2.47;;
67514;SDS011;60646;55.802;37.032;2023-07-02T00:46:19;3.08;;;2.30;;
67514;SDS011;60646;55.802;37.032;2023-07-02T00:48:55;6.35;;;2.22;;
67514;SDS011;60646;55.802;37.032;2023-07-02T00:53:49;4.07;;;2.80;;
67514;SDS011;60646;55.802;37.032;2023-07-02T00:56:16;3.20;;;2.20;;
67514;SDS011;60646;55.802;37.032;2023-07-02T00:58:43;3.40;;;2.47;;
67514;SDS011;60646;55.802;37.032;2023-07-02T01:01:23;4.93;;;2.30;;
67514;SDS011;60646;55.802;37.032;2023-07-02T01:04:01;2.50;;;2.30;;
67514;SDS011;60646;55.802;37.032;2023-07-02T01:09:01;6.38;;;2.33;;
67514;SDS011;60646;55.802;37.032;2023-07-02T01:11:31;4.78;;;2.50;;
67514;SDS011;60646;55.802;37.032;2023-07-02T01:14:19;4.07;;;2.38;;
67514;SDS011;60646;55.802;37.032;2023-07-02T01:16:50;3.70;;;2.50;;
67514;SDS011;60646;55.802;37.032;2023-07-02T01:19:21;4.05;;;2.47;;
67514;SDS011;60646;55.802;37.032;2023-07-02T01:21:48;2.85;;;2.45;;
67514;SDS011;60646;55.802;37.032;2023-07-02T01:24:18;4.38;;;2.65;;
67514;SDS011;60646;55.802;37.032;2023-07-02T01:26:46;2.63;;;2.28;;
67514;SDS011;60646;55.802;37.032;2023-07-02T01:29:16;4.22;;;2.38;;
67514;SDS011;60646;55.802;37.032;2023-07-02T01:31:42;4.05;;;2.42;;
67514;SDS011;60646;55.802;37.032;2023-07-02T01:34:09;3.45;;;2.67;;
67514;SDS011;60646;55.802;37.032;2023-07-02T01:36:36;4.10;;;2.55;;
67514;SDS011;60646;55.802;37.032;2023-07-02T01:39:02;5.50;;;2.70;;
67514;SDS011;60646;55.802;37.032;2023-07-02T01:41:29;3.08;;;2.33;;
67514;SDS011;60646;55.802;37.032;2023-07-02T01:43:55;2.83;;;2.00;;
67514;SDS011;60646;55.802;37.032;2023-07-02T01:46:21;4.43;;;2.20;;
67514;SDS011;60646;55.802;37.032;2023-07-02T01:48:47;2.60;;;2.15;;
67514;SDS011;60646;55.802;37.032;2023-07-02T01:51:13;2.50;;;2.15;;
67514;SDS011;60646;55.802;37.032;2023-07-02T01:53:39;5.85;;;2.50;;
67514;SDS011;60646;55.802;37.032;2023-07-02T01:56:05;2.95;;;2.40;;
67514;SDS011;60646;55.802;37.032;2023-07-02T01:58:31;3.60;;;2.33;;
67514;SDS011;60646;55.802;37.032;2023-07-02T02:00:56;2.78;;;2.30;;
67514;SDS011;60646;55.802;37.032;2023-07-02T02:03:22;5.38;;;2.40;;
67514;SDS011;60646;55.802;37.032;2023-07-02T02:05:48;2.83;;;2.10;;
67514;SDS011;60646;55.802;37.032;2023-07-02T02:08:14;3.47;;;2.42;;
67514;SDS011;60646;55.802;37.032;2023-07-02T02:10:39;3.15;;;2.65;;
67514;SDS011;60646;55.802;37.032;2023-07-02T02:13:05;3.85;;;2.40;;
67514;SDS011;60646;55.802;37.032;2023-07-02T02:15:31;3.25;;;2.38;;
67514;SDS011;60646;55.802;37.032;2023-07-02T02:17:57;3.67;;;2.28;;
67514;SDS011;60646;55.802;37.032;2023-07-02T02:20:23;3.70;;;2.40;;
67514;SDS011;60646;55.802;37.032;2023-07-02T02:22:49;2.92;;;2.17;;
67514;SDS011;60646;55.802;37.032;2023-07-02T02:25:15;3.75;;;2.50;;
67514;SDS011;60646;55.802;37.032;2023-07-02T02:27:41;3.33;;;2.55;;
67514;SDS011;60646;55.802;37.032;2023-07-02T02:30:09;3.15;;;2.58;;
67514;SDS011;60646;55.802;37.032;2023-07-02T02:32:35;2.72;;;2.20;;
67514;SDS011;60646;55.802;37.032;2023-07-02T02:35:03;3.10;;;2.38;;
67514;SDS011;60646;55.802;37.032;2023-07-02T02:37:30;3.72;;;2.65;;
67514;SDS011;60646;55.802;37.032;2023-07-02T02:39:57;2.80;;;2.25;;
67514;SDS011;60646;55.802;37.032;2023-07-02T02:42:24;3.25;;;2.05;;
67514;SDS011;60646;55.802;37.032;2023-07-02T02:44:50;3.08;;;2.22;;
67514;SDS011;60646;55.802;37.032;2023-07-02T02:47:16;3.58;;;2.28;;
67514;SDS011;60646;55.802;37.032;2023-07-02T02:49:42;2.75;;;2.10;;
67514;SDS011;60646;55.802;37.032;2023-07-02T02:52:08;2.83;;;2.33;;
67514;SDS011;60646;55.802;37.032;2023-07-02T02:54:34;3.65;;;2.20;;
67514;SDS011;60646;55.802;37.032;2023-07-02T02:57:00;3.72;;;2.25;;
67514;SDS011;60646;55.802;37.032;2023-07-02T02:59:25;5.40;;;2.33;;
67514;SDS011;60646;55.802;37.032;2023-07-02T03:01:51;3.13;;;2.10;;
67514;SDS011;60646;55.802;37.032;2023-07-02T03:04:17;3.42;;;2.58;;
67514;SDS011;60646;55.802;37.032;2023-07-02T03:06:43;4.50;;;2.10;;
67514;SDS011;60646;55.802;37.032;2023-07-02T03:09:08;3.47;;;2.30;;
67514;SDS011;60646;55.802;37.032;2023-07-02T03:11:34;3.45;;;2.60;;
67514;SDS011;60646;55.802;37.032;2023-07-02T03:14:00;3.10;;;2.20;;
67514;SDS011;60646;55.802;37.032;2023-07-02T03:16:26;4.30;;;2.33;;
67514;SDS011;60646;55.802;37.032;2023-07-02T03:18:52;5.07;;;2.28;;
67514;SDS011;60646;55.802;37.032;2023-07-02T03:21:17;3.20;;;2.40;;
67514;SDS011;60646;55.802;37.032;2023-07-02T03:23:43;2.53;;;2.25;;
67514;SDS011;60646;55.802;37.032;2023-07-02T03:26:09;3.72;;;2.42;;
67514;SDS011;60646;55.802;37.032;2023-07-02T03:28:35;3.22;;;2.40;;
67514;SDS011;60646;55.802;37.032;2023-07-02T03:31:01;3.90;;;2.40;;
67514;SDS011;60646;55.802;37.032;2023-07-02T03:33:27;2.63;;;2.20;;
67514;SDS011;60646;55.802;37.032;2023-07-02T03:35:53;3.75;;;2.40;;
67514;SDS011;60646;55.802;37.032;2023-07-02T03:38:19;3.00;;;2.22;;
67514;SDS011;60646;55.802;37.032;2023-07-02T03:40:45;3.03;;;2.22;;
67514;SDS011;60646;55.802;37.032;2023-07-02T03:43:10;3.05;;;2.13;;
67514;SDS011;60646;55.802;37.032;2023-07-02T03:45:36;3.50;;;2.28;;
67514;SDS011;60646;55.802;37.032;2023-07-02T03:48:02;3.03;;;2.10;;
67514;SDS011;60646;55.802;37.032;2023-07-02T03:50:28;3.30;;;2.20;;
67514;SDS011;60646;55.802;37.032;2023-07-02T03:52:53;3.55;;;2.40;;
67514;SDS011;60646;55.802;37.032;2023-07-02T03:55:19;5.30;;;2.63;;
67514;SDS011;60646;55.802;37.032;2023-07-02T03:57:46;3.25;;;2.08;;
67514;SDS011;60646;55.802;37.032;2023-07-02T04:00:11;3.95;;;2.50;;
67514;SDS011;60646;55.802;37.032;2023-07-02T04:02:40;4.32;;;2.08;;
67514;SDS011;60646;55.802;37.032;2023-07-02T04:05:07;3.40;;;2.30;;
67514;SDS011;60646;55.802;37.032;2023-07-02T04:07:33;3.00;;;2.40;;
67514;SDS011;60646;55.802;37.032;2023-07-02T04:09:58;2.85;;;2.10;;
67514;SDS011;60646;55.802;37.032;2023-07-02T04:12:25;2.90;;;2.13;;
67514;SDS011;60646;55.802;37.032;2023-07-02T04:14:51;3.08;;;2.40;;
67514;SDS011;60646;55.802;37.032;2023-07-02T04:17:17;3.35;;;2.38;;
67514;SDS011;60646;55.802;37.032;2023-07-02T04:19:43;3.10;;;2.45;;
67514;SDS011;60646;55.802;37.032;2023-07-02T04:22:08;5.32;;;2.50;;
67514;SDS011;60646;55.802;37.032;2023-07-02T04:24:34;3.88;;;2.63;;
67514;SDS011;60646;55.802;37.032;2023-07-02T04:27:00;4.50;;;2.25;;
67514;SDS011;60646;55.802;37.032;2023-07-02T04:29:26;3.85;;;2.53;;
67514;SDS011;60646;55.802;37.032;2023-07-02T04:31:52;4.25;;;2.80;;
67514;SDS011;60646;55.802;37.032;2023-07-02T04:34:17;4.47;;;2.40;;
67514;SDS011;60646;55.802;37.032;2023-07-02T04:36:47;3.17;;;2.33;;
67514;SDS011;60646;55.802;37.032;2023-07-02T04:39:17;4.43;;;2.38;;
67514;SDS011;60646;55.802;37.032;2023-07-02T04:42:27;3.80;;;2.05;;
67514;SDS011;60646;55.802;37.032;2023-07-02T04:44:53;3.17;;;2.30;;
67514;SDS011;60646;55.802;37.032;2023-07-02T04:47:20;4.10;;;2.28;;
67514;SDS011;60646;55.802;37.032;2023-07-02T04:49:45;2.80;;;2.50;;
67514;SDS011;60646;55.802;37.032;2023-07-02T04:52:12;3.33;;;2.13;;
67514;SDS011;60646;55.802;37.032;2023-07-02T04:54:37;3.47;;;2.40;;
67514;SDS011;60646;55.802;37.032;2023-07-02T04:57:03;3.55;;;2.38;;
67514;SDS011;60646;55.802;37.032;2023-07-02T04:59:29;3.05;;;2.38;;
67514;SDS011;60646;55.802;37.032;2023-07-02T05:01:55;3.22;;;2.50;;
67514;SDS011;60646;55.802;37.032;2023-07-02T05:04:21;3.63;;;2.00;;
67514;SDS011;60646;55.802;37.032;2023-07-02T05:06:47;2.90;;;2.28;;
67514;SDS011;60646;55.802;37.032;2023-07-02T05:09:12;3.72;;;2.38;;
67514;SDS011;60646;55.802;37.032;2023-07-02T05:11:38;4.25;;;2.53;;
67514;SDS011;60646;55.802;37.032;2023-07-02T05:14:04;2.97;;;2.20;;
67514;SDS011;60646;55.802;37.032;2023-07-02T05:16:30;4.65;;;2.13;;
67514;SDS011;60646;55.802;37.032;2023-07-02T05:18:55;5.57;;;2.15;;
67514;SDS011;60646;55.802;37.032;2023-07-02T05:21:21;3.30;;;2.17;;
67514;SDS011;60646;55.802;37.032;2023-07-02T05:23:47;3.20;;;2.20;;
67514;SDS011;60646;55.802;37.032;2023-07-02T05:26:13;3.03;;;2.25;;
67514;SDS011;60646;55.802;37.032;2023-07-02T05:28:39;3.53;;;2.45;;
67514;SDS011;60646;55.802;37.032;2023-07-02T05:31:14;3.00;;;2.30;;
67514;SDS011;60646;55.802;37.032;2023-07-02T05:33:40;4.05;;;2.42;;
67514;SDS011;60646;55.802;37.032;2023-07-02T05:36:06;3.63;;;2.35;;
67514;SDS011;60646;55.802;37.032;2023-07-02T05:38:32;3.17;;;2.22;;
67514;SDS011;60646;55.802;37.032;2023-07-02T05:40:57;5.15;;;2.90;;
67514;SDS011;60646;55.802;37.032;2023-07-02T05:43:23;3.67;;;2.38;;
67514;SDS011;60646;55.802;37.032;2023-07-02T05:45:50;4.75;;;3.10;;
67514;SDS011;60646;55.802;37.032;2023-07-02T05:48:17;4.70;;;3.10;;
67514;SDS011;60646;55.802;37.032;2023-07-02T05:50:44;6.22;;;3.03;;
67514;SDS011;60646;55.802;37.032;2023-07-02T05:53:09;5.18;;;2.75;;
67514;SDS011;60646;55.802;37.032;2023-07-02T05:55:36;3.60;;;2.22;;
67514;SDS011;60646;55.802;37.032;2023-07-02T05:58:02;2.95;;;2.30;;
67514;SDS011;60646;55.802;37.032;2023-07-02T06:00:28;3.30;;;2.17;;
67514;SDS011;60646;55.802;37.032;2023-07-02T06:02:54;4.32;;;2.60;;
67514;SDS011;60646;55.802;37.032;2023-07-02T06:05:20;3.08;;;2.15;;
67514;SDS011;60646;55.802;37.032;2023-07-02T06:07:46;2.88;;;2.17;;
67514;SDS011;60646;55.802;37.032;2023-07-02T06:10:12;4.88;;;2.20;;
67514;SDS011;60646;55.802;37.032;2023-07-02T06:12:38;4.03;;;2.35;;
67514;SDS011;60646;55.802;37.032;2023-07-02T06:15:04;2.90;;;2.05;;
67514;SDS011;60646;55.802;37.032;2023-07-02T06:17:31;3.80;;;2.60;;
67514;SDS011;60646;55.802;37.032;2023-07-02T06:19:56;3.75;;;2.33;;
67514;SDS011;60646;55.802;37.032;2023-07-02T06:22:22;2.88;;;2.20;;
67514;SDS011;60646;55.802;37.032;2023-07-02T06:24:48;2.58;;;1.90;;
67514;SDS011;60646;55.802;37.032;2023-07-02T06:27:14;2.65;;;2.20;;
67514;SDS011;60646;55.802;37.032;2023-07-02T06:29:40;8.25;;;2.78;;
67514;SDS011;60646;55.802;37.032;2023-07-02T06:32:06;3.10;;;2.30;;
67514;SDS011;60646;55.802;37.032;2023-07-02T06:34:32;2.75;;;2.20;;
67514;SDS011;60646;55.802;37.032;2023-07-02T06:36:57;4.13;;;2.40;;
67514;SDS011;60646;55.802;37.032;2023-07-02T06:39:23;3.45;;;2.25;;
67514;SDS011;60646;55.802;37.032;2023-07-02T06:41:49;2.17;;;1.80;;
67514;SDS011;60646;55.802;37.032;2023-07-02T06:44:16;3.80;;;1.98;;
67514;SDS011;60646;55.802;37.032;2023-07-02T06:46:44;4.32;;;2.58;;
67514;SDS011;60646;55.802;37.032;2023-07-02T06:49:11;4.47;;;1.83;;
67514;SDS011;60646;55.802;37.032;2023-07-02T06:51:37;3.72;;;2.10;;
67514;SDS011;60646;55.802;37.032;2023-07-02T06:54:03;4.80;;;2.30;;
67514;SDS011;60646;55.802;37.032;2023-07-02T06:56:29;3.45;;;2.20;;
67514;SDS011;60646;55.802;37.032;2023-07-02T06:58:54;2.85;;;1.83;;
67514;SDS011;60646;55.802;37.032;2023-07-02T07:01:20;3.35;;;2.10;;
67514;SDS011;60646;55.802;37.032;2023-07-02T07:03:46;3.03;;;1.83;;
67514;SDS011;60646;55.802;37.032;2023-07-02T07:06:12;2.70;;;1.80;;
67514;SDS011;60646;55.802;37.032;2023-07-02T07:08:38;3.80;;;1.77;;
67514;SDS011;60646;55.802;37.032;2023-07-02T07:11:04;7.45;;;2.45;;
67514;SDS011;60646;55.802;37.032;2023-07-02T07:13:30;3.38;;;2.00;;
67514;SDS011;60646;55.802;37.032;2023-07-02T07:15:56;3.40;;;2.10;;
67514;SDS011;60646;55.802;37.032;2023-07-02T07:18:21;2.00;;;1.63;;
67514;SDS011;60646;55.802;37.032;2023-07-02T07:20:47;2.50;;;1.95;;
67514;SDS011;60646;55.802;37.032;2023-07-02T07:23:13;2.38;;;2.00;;
67514;SDS011;60646;55.802;37.032;2023-07-02T07:25:41;3.10;;;1.60;;
67514;SDS011;60646;55.802;37.032;2023-07-02T07:28:06;2.33;;;1.75;;
67514;SDS011;60646;55.802;37.032;2023-07-02T07:30:32;2.33;;;2.00;;
67514;SDS011;60646;55.802;37.032;2023-07-02T07:32:58;4.00;;;1.88;;
67514;SDS011;60646;55.802;37.032;2023-07-02T07:35:24;3.53;;;2.00;;
67514;SDS011;60646;55.802;37.032;2023-07-02T07:37:50;4.00;;;2.10;;
67514;SDS011;60646;55.802;37.032;2023-07-02T07:40:34;2.88;;;2.00;;
67514;SDS011;60646;55.802;37.032;2023-07-02T07:43:00;3.53;;;2.20;;
67514;SDS011;60646;55.802;37.032;2023-07-02T07:45:26;2.95;;;1.90;;
67514;SDS011;60646;55.802;37.032;2023-07-02T07:47:55;4.05;;;2.13;;
67514;SDS011;60646;55.802;37.032;2023-07-02T07:50:21;3.05;;;2.00;;
67514;SDS011;60646;55.802;37.032;2023-07-02T07:52:48;2.35;;;1.90;;
67514;SDS011;60646;55.802;37.032;2023-07-02T07:55:14;4.75;;;1.80;;
67514;SDS011;60646;55.802;37.032;2023-07-02T07:57:39;3.22;;;1.80;;
67514;SDS011;60646;55.802;37.032;2023-07-02T08:00:23;3.58;;;1.83;;
67514;SDS011;60646;55.802;37.032;2023-07-02T08:02:51;3.60;;;1.98;;
67514;SDS011;60646;55.802;37.032;2023-07-02T08:05:17;2.47;;;1.88;;
67514;SDS011;60646;55.802;37.032;2023-07-02T08:07:43;2.10;;;1.80;;
67514;SDS011;60646;55.802;37.032;2023-07-02T08:13:57;5.32;;;2.63;;
67514;SDS011;60646;55.802;37.032;2023-07-02T08:16:22;3.33;;;2.20;;
67514;SDS011;60646;55.802;37.032;2023-07-02T08:18:48;4.32;;;2.40;;
67514;SDS011;60646;55.802;37.032;2023-07-02T08:21:15;7.35;;;2.08;;
67514;SDS011;60646;55.802;37.032;2023-07-02T08:23:43;3.00;;;2.08;;
67514;SDS011;60646;55.802;37.032;2023-07-02T08:26:09;4.63;;;2.30;;
67514;SDS011;60646;55.802;37.032;2023-07-02T08:28:39;3.78;;;2.10;;
67514;SDS011;60646;55.802;37.032;2023-07-02T08:31:05;2.78;;;1.92;;
67514;SDS011;60646;55.802;37.032;2023-07-02T08:33:31;2.90;;;1.98;;
67514;SDS011;60646;55.802;37.032;2023-07-02T08:35:57;2.47;;;1.88;;
67514;SDS011;60646;55.802;37.032;2023-07-02T08:38:23;2.70;;;1.90;;
67514;SDS011;60646;55.802;37.032;2023-07-02T08:40:49;3.03;;;1.85;;
67514;SDS011;60646;55.802;37.032;2023-07-02T08:43:15;2.95;;;2.00;;
67514;SDS011;60646;55.802;37.032;2023-07-02T08:45:59;3.58;;;1.60;;
67514;SDS011;60646;55.802;37.032;2023-07-02T08:48:25;6.50;;;2.08;;
67514;SDS011;60646;55.802;37.032;2023-07-02T08:50:52;2.78;;;2.00;;
67514;SDS011;60646;55.802;37.032;2023-07-02T08:53:17;2.95;;;2.08;;
67514;SDS011;60646;55.802;37.032;2023-07-02T08:55:44;4.32;;;2.00;;
67514;SDS011;60646;55.802;37.032;2023-07-02T08:58:09;4.13;;;2.10;;
67514;SDS011;60646;55.802;37.032;2023-07-02T09:00:35;4.78;;;2.15;;
67514;SDS011;60646;55.802;37.032;2023-07-02T09:03:14;2.70;;;1.75;;
67514;SDS011;60646;55.802;37.032;2023-07-02T09:05:48;3.75;;;2.25;;
67514;SDS011;60646;55.802;37.032;2023-07-02T09:08:23;6.15;;;2.20;;
67514;SDS011;60646;55.802;37.032;2023-07-02T09:10:50;2.92;;;1.90;;
67514;SDS011;60646;55.802;37.032;2023-07-02T09:13:15;2.97;;;1.92;;
67514;SDS011;60646;55.802;37.032;2023-07-02T09:15:42;3.03;;;1.73;;
67514;SDS011;60646;55.802;37.032;2023-07-02T09:18:41;4.07;;;2.13;;
67514;SDS011;60646;55.802;37.032;2023-07-02T09:21:00;2.88;;;1.80;;
67514;SDS011;60646;55.802;37.032;2023-07-02T09:24:22;1.75;;;1.52;;
67514;SDS011;60646;55.802;37.032;2023-07-02T09:26:49;2.35;;;1.73;;
67514;SDS011;60646;55.802;37.032;2023-07-02T09:29:22;3.00;;;1.70;;
67514;SDS011;60646;55.802;37.032;2023-07-02T09:31:49;1.98;;;1.50;;
67514;SDS011;60646;55.802;37.032;2023-07-02T09:34:16;3.13;;;1.80;;
67514;SDS011;60646;55.802;37.032;2023-07-02T09:36:42;2.78;;;1.85;;
67514;SDS011;60646;55.802;37.032;2023-07-02T09:39:19;2.10;;;1.67;;
67514;SDS011;60646;55.802;37.032;2023-07-02T09:41:48;4.00;;;1.60;;
67514;SDS011;60646;55.802;37.032;2023-07-02T09:44:15;2.95;;;1.80;;
67514;SDS011;60646;55.802;37.032;2023-07-02T09:46:52;5.22;;;1.65;;
67514;SDS011;60646;55.802;37.032;2023-07-02T09:49:23;4.05;;;1.80;;
67514;SDS011;60646;55.802;37.032;2023-07-02T09:51:50;2.03;;;1.55;;
67514;SDS011;60646;55.802;37.032;2023-07-02T09:54:17;2.28;;;1.58;;
67514;SDS011;60646;55.802;37.032;2023-07-02T09:56:45;2.60;;;1.70;;
67514;SDS011;60646;55.802;37.032;2023-07-02T09:59:11;2.63;;;1.55;;
67514;SDS011;60646;55.802;37.032;2023-07-02T10:01:37;2.67;;;1.50;;
67514;SDS011;60646;55.802;37.032;2023-07-02T10:04:16;2.97;;;1.80;;
67514;SDS011;60646;55.802;37.032;2023-07-02T10:06:50;1.73;;;1.20;;
67514;SDS011;60646;55.802;37.032;2023-07-02T10:09:18;4.45;;;1.50;;
67514;SDS011;60646;55.802;37.032;2023-07-02T10:11:45;2.42;;;1.60;;
67514;SDS011;60646;55.802;37.032;2023-07-02T10:14:11;2.60;;;1.50;;
67514;SDS011;60646;55.802;37.032;2023-07-02T10:19:16;3.45;;;1.70;;
67514;SDS011;60646;55.802;37.032;2023-07-02T10:21:42;1.58;;;1.27;;
67514;SDS011;60646;55.802;37.032;2023-07-02T10:24:11;4.47;;;1.88;;
67514;SDS011;60646;55.802;37.032;2023-07-02T10:26:38;3.45;;;1.60;;
67514;SDS011;60646;55.802;37.032;2023-07-02T10:29:05;2.78;;;1.50;;
67514;SDS011;60646;55.802;37.032;2023-07-02T10:31:31;2.53;;;1.60;;
67514;SDS011;60646;55.802;37.032;2023-07-02T10:33:57;2.25;;;1.65;;
67514;SDS011;60646;55.802;37.032;2023-07-02T10:36:24;2.30;;;1.67;;
67514;SDS011;60646;55.802;37.032;2023-07-02T10:38:50;2.05;;;1.48;;
67514;SDS011;60646;55.802;37.032;2023-07-02T10:41:23;2.00;;;1.25;;
67514;SDS011;60646;55.802;37.032;2023-07-02T10:43:51;1.90;;;1.50;;
67514;SDS011;60646;55.802;37.032;2023-07-02T10:46:23;3.85;;;1.77;;
67514;SDS011;60646;55.802;37.032;2023-07-02T10:48:55;3.03;;;1.70;;
67514;SDS011;60646;55.802;37.032;2023-07-02T10:51:22;6.40;;;1.90;;
67514;SDS011;60646;55.802;37.032;2023-07-02T10:53:58;3.45;;;1.48;;
67514;SDS011;60646;55.802;37.032;2023-07-02T10:56:25;2.70;;;1.70;;
67514;SDS011;60646;55.802;37.032;2023-07-02T11:02:00;2.25;;;1.67;;
67514;SDS011;60646;55.802;37.032;2023-07-02T11:04:29;1.88;;;1.45;;
67514;SDS011;60646;55.802;37.032;2023-07-02T11:06:57;4.05;;;1.70;;
67514;SDS011;60646;55.802;37.032;2023-07-02T11:09:23;2.50;;;1.90;;
67514;SDS011;60646;55.802;37.032;2023-07-02T11:11:50;2.38;;;1.63;;
67514;SDS011;60646;55.802;37.032;2023-07-02T11:14:30;4.20;;;1.80;;
67514;SDS011;60646;55.802;37.032;2023-07-02T11:17:03;2.28;;;1.80;;
67514;SDS011;60646;55.802;37.032;2023-07-02T11:19:31;2.10;;;1.52;;
67514;SDS011;60646;55.802;37.032;2023-07-02T11:22:00;3.00;;;1.50;;
67514;SDS011;60646;55.802;37.032;2023-07-02T11:27:02;7.07;;;1.90;;
67514;SDS011;60646;55.802;37.032;2023-07-02T11:29:33;3.60;;;2.70;;
67514;SDS011;60646;55.802;37.032;2023-07-02T11:32:10;5.18;;;2.28;;
67514;SDS011;60646;55.802;37.032;2023-07-02T11:34:38;5.25;;;2.35;;
67514;SDS011;60646;55.802;37.032;2023-07-02T11:37:04;2.70;;;1.90;;
67514;SDS011;60646;55.802;37.032;2023-07-02T11:39:31;7.25;;;3.78;;
67514;SDS011;60646;55.802;37.032;2023-07-02T11:41:58;3.70;;;2.80;;
67514;SDS011;60646;55.802;37.032;2023-07-02T11:44:24;6.93;;;3.78;;
67514;SDS011;60646;55.802;37.032;2023-07-02T11:46:50;4.82;;;2.70;;
67514;SDS011;60646;55.802;37.032;2023-07-02T11:49:16;3.60;;;2.30;;
67514;SDS011;60646;55.802;37.032;2023-07-02T11:51:42;3.58;;;2.08;;
67514;SDS011;60646;55.802;37.032;2023-07-02T11:54:14;3.55;;;2.20;;
67514;SDS011;60646;55.802;37.032;2023-07-02T11:56:44;2.53;;;2.03;;
67514;SDS011;60646;55.802;37.032;2023-07-02T11:59:10;3.10;;;2.20;;
67514;SDS011;60646;55.802;37.032;2023-07-02T12:01:36;3.25;;;1.95;;
67514;SDS011;60646;55.802;37.032;2023-07-02T12:04:02;6.10;;;2.38;;
67514;SDS011;60646;55.802;37.032;2023-07-02T12:06:28;3.30;;;2.45;;
67514;SDS011;60646;55.802;37.032;2023-07-02T12:08:54;3.78;;;2.30;;
67514;SDS011;60646;55.802;37.032;2023-07-02T12:11:20;3.22;;;2.10;;
67514;SDS011;60646;55.802;37.032;2023-07-02T12:13:45;4.78;;;3.10;;
67514;SDS011;60646;55.802;37.032;2023-07-02T12:16:11;3.53;;;2.30;;
67514;SDS011;60646;55.802;37.032;2023-07-02T12:18:37;2.63;;;1.90;;
67514;SDS011;60646;55.802;37.032;2023-07-02T12:21:03;5.30;;;2.83;;
67514;SDS011;60646;55.802;37.032;2023-07-02T12:23:29;4.60;;;2.70;;
67514;SDS011;60646;55.802;37.032;2023-07-02T12:25:55;4.78;;;2.85;;
67514;SDS011;60646;55.802;37.032;2023-07-02T12:28:21;3.88;;;2.25;;
67514;SDS011;60646;55.802;37.032;2023-07-02T12:30:46;4.97;;;2.70;;
67514;SDS011;60646;55.802;37.032;2023-07-02T12:33:12;5.55;;;3.20;;
67514;SDS011;60646;55.802;37.032;2023-07-02T12:35:38;3.00;;;2.20;;
67514;SDS011;60646;55.802;37.032;2023-07-02T12:38:04;4.90;;;1.80;;
67514;SDS011;60646;55.802;37.032;2023-07-02T12:40:32;4.13;;;3.03;;
67514;SDS011;60646;55.802;37.032;2023-07-02T12:42:58;5.00;;;2.80;;
67514;SDS011;60646;55.802;37.032;2023-07-02T12:45:24;3.22;;;2.20;;
67514;SDS011;60646;55.802;37.032;2023-07-02T12:47:50;3.03;;;2.25;;
67514;SDS011;60646;55.802;37.032;2023-07-02T12:50:15;3.72;;;2.03;;
67514;SDS011;60646;55.802;37.032;2023-07-02T12:52:41;3.13;;;2.00;;
67514;SDS011;60646;55.802;37.032;2023-07-02T12:55:07;2.10;;;1.77;;
67514;SDS011;60646;55.802;37.032;2023-07-02T12:57:34;3.72;;;2.03;;
67514;SDS011;60646;55.802;37.032;2023-07-02T13:00:00;3.13;;;2.00;;
67514;SDS011;60646;55.802;37.032;2023-07-02T13:02:25;2.75;;;1.83;;
67514;SDS011;60646;55.802;37.032;2023-07-02T13:04:51;2.85;;;1.90;;
67514;SDS011;60646;55.802;37.032;2023-07-02T13:07:17;2.45;;;1.70;;
67514;SDS011;60646;55.802;37.032;2023-07-02T13:09:43;3.50;;;2.08;;
67514;SDS011;60646;55.802;37.032;2023-07-02T13:12:10;2.33;;;1.70;;
67514;SDS011;60646;55.802;37.032;2023-07-02T13:14:36;4.35;;;2.17;;
67514;SDS011;60646;55.802;37.032;2023-07-02T13:17:02;3.53;;;1.90;;
67514;SDS011;60646;55.802;37.032;2023-07-02T13:19:31;3.50;;;1.98;;
67514;SDS011;60646;55.802;37.032;2023-07-02T13:21:58;3.53;;;2.40;;
67514;SDS011;60646;55.802;37.032;2023-07-02T13:24:24;4.05;;;2.40;;
67514;SDS011;60646;55.802;37.032;2023-07-02T13:26:50;3.63;;;2.47;;
67514;SDS011;60646;55.802;37.032;2023-07-02T13:29:16;2.83;;;2.17;;
67514;SDS011;60646;55.802;37.032;2023-07-02T13:31:42;7.05;;;2.00;;
67514;SDS011;60646;55.802;37.032;2023-07-02T13:34:08;3.10;;;1.83;;
67514;SDS011;60646;55.802;37.032;2023-07-02T13:36:34;3.60;;;2.30;;
67514;SDS011;60646;55.802;37.032;2023-07-02T13:39:00;3.72;;;2.33;;
67514;SDS011;60646;55.802;37.032;2023-07-02T13:41:28;4.20;;;1.92;;
67514;SDS011;60646;55.802;37.032;2023-07-02T13:43:56;3.38;;;2.40;;
67514;SDS011;60646;55.802;37.032;2023-07-02T13:46:22;5.88;;;2.60;;
67514;SDS011;60646;55.802;37.032;2023-07-02T13:48:48;4.18;;;2.35;;
67514;SDS011;60646;55.802;37.032;2023-07-02T13:51:13;3.10;;;2.00;;
67514;SDS011;60646;55.802;37.032;2023-07-02T13:53:39;5.18;;;2.25;;
67514;SDS011;60646;55.802;37.032;2023-07-02T13:56:05;3.95;;;2.67;;
67514;SDS011;60646;55.802;37.032;2023-07-02T14:01:33;3.78;;;2.30;;
67514;SDS011;60646;55.802;37.032;2023-07-02T14:04:00;3.28;;;2.00;;
67514;SDS011;60646;55.802;37.032;2023-07-02T14:06:27;3.17;;;2.20;;
67514;SDS011;60646;55.802;37.032;2023-07-02T14:08:53;3.78;;;2.50;;
67514;SDS011;60646;55.802;37.032;2023-07-02T14:11:19;3.63;;;2.53;;
67514;SDS011;60646;55.802;37.032;2023-07-02T14:13:46;4.20;;;2.60;;
67514;SDS011;60646;55.802;37.032;2023-07-02T14:16:12;3.53;;;2.45;;
67514;SDS011;60646;55.802;37.032;2023-07-02T14:18:38;3.95;;;2.63;;
67514;SDS011;60646;55.802;37.032;2023-07-02T14:21:04;3.00;;;2.13;;
67514;SDS011;60646;55.802;37.032;2023-07-02T14:23:31;4.63;;;2.53;;
67514;SDS011;60646;55.802;37.032;2023-07-02T14:25:57;4.25;;;2.55;;
67514;SDS011;60646;55.802;37.032;2023-07-02T14:28:23;3.85;;;2.72;;
67514;SDS011;60646;55.802;37.032;2023-07-02T14:30:58;2.88;;;2.00;;
67514;SDS011;60646;55.802;37.032;2023-07-02T14:33:26;2.85;;;1.95;;
67514;SDS011;60646;55.802;37.032;2023-07-02T14:35:52;3.72;;;2.20;;
67514;SDS011;60646;55.802;37.032;2023-07-02T14:38:18;3.67;;;2.17;;
67514;SDS011;60646;55.802;37.032;2023-07-02T14:40:44;3.35;;;2.20;;
67514;SDS011;60646;55.802;37.032;2023-07-02T14:43:10;3.83;;;2.20;;
67514;SDS011;60646;55.802;37.032;2023-07-02T14:45:47;2.35;;;1.80;;
67514;SDS011;60646;55.802;37.032;2023-07-02T14:48:14;4.13;;;2.28;;
67514;SDS011;60646;55.802;37.032;2023-07-02T14:50:59;3.92;;;2.25;;
67514;SDS011;60646;55.802;37.032;2023-07-02T14:53:26;2.45;;;1.85;;
67514;SDS011;60646;55.802;37.032;2023-07-02T14:56:00;3.10;;;2.20;;